createdAt,value
2019-02-14T00:02:06.335Z,0.76
2019-02-14T00:04:33.184Z,0.83
2019-02-14T00:06:59.924Z,0.71
2019-02-14T00:09:26.677Z,0.90
2019-02-14T00:11:54.444Z,0.94
2019-02-14T00:14:21.302Z,0.86
2019-02-14T00:16:48.166Z,0.76
2019-02-14T00:19:15.031Z,0.68
2019-02-14T00:21:41.779Z,0.66
2019-02-14T00:24:08.563Z,0.69
2019-02-14T00:26:35.549Z,0.62
2019-02-14T00:29:02.519Z,0.63
2019-02-14T00:31:29.258Z,0.70
2019-02-14T00:33:56.032Z,0.65
2019-02-14T00:36:22.768Z,0.53
2019-02-14T00:38:49.634Z,0.58
2019-02-14T00:41:16.498Z,0.62
2019-02-14T00:43:43.257Z,-0.32
2019-02-14T00:46:10.213Z,-0.77
2019-02-14T00:48:37.023Z,-0.94
2019-02-14T00:51:03.909Z,-1.16
2019-02-14T00:53:30.786Z,-1.10
2019-02-14T00:55:57.649Z,-0.77
2019-02-14T00:58:24.523Z,-0.41
2019-02-14T01:00:52.297Z,-0.13
2019-02-14T01:03:19.075Z,0.05
2019-02-14T01:05:45.887Z,0.20
2019-02-14T01:08:12.628Z,0.32
2019-02-14T01:10:39.378Z,0.47
2019-02-14T01:13:06.128Z,0.00
2019-02-14T01:15:36.188Z,-0.36
2019-02-14T01:18:03.075Z,-0.93
2019-02-14T01:20:33.524Z,-1.21
2019-02-14T01:23:00.262Z,-1.19
2019-02-14T01:25:27.148Z,-0.72
2019-02-14T01:27:55.308Z,-0.37
2019-02-14T01:30:22.107Z,-0.33
2019-02-14T01:32:49.343Z,-0.20
2019-02-14T01:35:16.212Z,-0.10
2019-02-14T01:37:42.947Z,-0.05
2019-02-14T01:40:09.967Z,0.07
2019-02-14T01:42:36.920Z,0.03
2019-02-14T01:45:04.753Z,0.07
2019-02-14T01:47:31.726Z,0.18
2019-02-14T01:49:58.572Z,0.24
2019-02-14T01:52:30.438Z,0.31
2019-02-14T01:54:59.421Z,0.28
2019-02-14T01:57:26.385Z,0.17
2019-02-14T01:59:53.164Z,0.18
2019-02-14T02:02:19.969Z,0.20
2019-02-14T02:04:46.797Z,0.30
2019-02-14T02:07:14.634Z,-0.02
2019-02-14T02:09:41.643Z,-0.25
2019-02-14T02:12:08.502Z,-0.35
2019-02-14T02:14:35.241Z,-0.47
2019-02-14T02:17:01.988Z,-0.47
2019-02-14T02:19:28.918Z,-0.27
2019-02-14T02:21:55.795Z,-0.09
2019-02-14T02:24:22.534Z,-0.06
2019-02-14T02:26:49.359Z,0.05
2019-02-14T02:29:16.104Z,0.10
2019-02-14T02:31:42.843Z,0.14
2019-02-14T02:34:09.931Z,0.18
2019-02-14T02:36:36.813Z,0.32
2019-02-14T02:39:05.788Z,0.44
2019-02-14T02:41:33.431Z,0.69
2019-02-14T02:44:00.389Z,0.65
2019-02-14T02:46:27.301Z,0.55
2019-02-14T02:48:53.999Z,0.48
2019-02-14T02:51:20.738Z,0.39
2019-02-14T02:53:47.543Z,0.46
2019-02-14T02:56:14.314Z,0.48
2019-02-14T02:58:41.150Z,0.46
2019-02-14T03:01:07.995Z,0.54
2019-02-14T03:03:34.839Z,0.42
2019-02-14T03:06:10.212Z,0.06
2019-02-14T03:08:30.468Z,-0.19
2019-02-14T03:10:57.309Z,0.09
2019-02-14T03:13:24.199Z,0.52
2019-02-14T03:15:52.373Z,0.65
2019-02-14T03:18:19.307Z,0.47
2019-02-14T03:20:46.078Z,0.35
2019-02-14T03:23:14.029Z,0.26
2019-02-14T03:25:40.873Z,0.23
2019-02-14T03:28:07.606Z,0.22
2019-02-14T03:30:34.602Z,0.20
2019-02-14T03:33:01.436Z,0.14
2019-02-14T03:35:28.170Z,0.00
2019-02-14T03:37:55.050Z,-0.11
2019-02-14T03:40:21.880Z,-0.10
2019-02-14T03:42:48.641Z,0.03
2019-02-14T03:45:15.740Z,-0.02
2019-02-14T03:47:42.503Z,0.00
2019-02-14T03:50:10.538Z,0.10
2019-02-14T03:52:37.422Z,0.25
2019-02-14T03:55:04.361Z,0.29
2019-02-14T03:57:31.215Z,0.17
2019-02-14T03:59:57.984Z,-0.30
2019-02-14T04:02:24.730Z,-0.11
2019-02-14T04:04:51.485Z,0.09
2019-02-14T04:07:18.382Z,0.10
2019-02-14T04:09:45.124Z,0.12
2019-02-14T04:12:11.901Z,0.15
2019-02-14T04:14:38.652Z,0.04
2019-02-14T04:17:05.501Z,-0.08
2019-02-14T04:19:32.373Z,-0.02
2019-02-14T04:21:59.166Z,-0.09
2019-02-14T04:24:26.010Z,0.08
2019-02-14T04:26:52.738Z,0.02
2019-02-14T04:29:19.613Z,-0.12
2019-02-14T04:31:46.340Z,-0.15
2019-02-14T04:34:13.194Z,-0.10
2019-02-14T04:36:40.016Z,-0.16
2019-02-14T04:39:07.403Z,0.06
2019-02-14T04:41:34.248Z,0.02
2019-02-14T04:44:01.029Z,-0.13
2019-02-14T04:46:27.773Z,-0.17
2019-02-14T04:48:54.505Z,0.07
2019-02-14T04:51:21.699Z,0.15
2019-02-14T04:53:48.655Z,0.10
2019-02-14T04:56:15.414Z,-0.04
2019-02-14T04:58:42.381Z,-0.15
2019-02-14T05:01:09.220Z,-0.26
2019-02-14T05:03:35.995Z,-0.29
2019-02-14T05:06:02.866Z,-0.32
2019-02-14T05:08:29.705Z,-0.18
2019-02-14T05:10:56.445Z,-0.26
2019-02-14T05:13:23.193Z,-1.05
2019-02-14T05:15:50.047Z,-1.28
2019-02-14T05:18:17.893Z,-1.50
2019-02-14T05:20:44.687Z,-1.87
2019-02-14T05:23:11.533Z,-1.90
2019-02-14T05:25:38.538Z,-1.62
2019-02-14T05:28:06.589Z,-1.29
2019-02-14T05:30:33.499Z,-1.06
2019-02-14T05:33:02.389Z,-0.83
2019-02-14T05:35:31.791Z,-0.74
2019-02-14T05:37:58.749Z,-0.71
2019-02-14T05:40:25.506Z,-0.67
2019-02-14T05:42:52.605Z,-0.67
2019-02-14T05:45:19.338Z,-0.56
2019-02-14T05:47:47.216Z,-0.33
2019-02-14T05:50:14.036Z,-0.43
2019-02-14T05:52:40.820Z,-0.44
2019-02-14T05:55:08.690Z,-0.55
2019-02-14T05:57:35.588Z,-0.49
2019-02-14T06:00:04.463Z,-0.59
2019-02-14T06:02:32.235Z,-0.59
2019-02-14T06:04:59.465Z,-0.55
2019-02-14T06:07:26.232Z,-0.51
2019-02-14T06:09:53.105Z,-0.53
2019-02-14T06:12:20.162Z,-0.56
2019-02-14T06:14:47.114Z,-0.56
2019-02-14T06:17:14.080Z,-0.57
2019-02-14T06:19:41.089Z,-0.68
2019-02-14T06:22:07.840Z,-0.77
2019-02-14T06:24:34.801Z,-0.75
2019-02-14T06:27:01.672Z,-0.71
2019-02-14T06:29:28.394Z,-0.67
2019-02-14T06:31:55.263Z,-0.86
2019-02-14T06:34:22.273Z,-1.27
2019-02-14T06:36:49.235Z,-1.25
2019-02-14T06:39:16.124Z,-1.22
2019-02-14T06:41:43.012Z,-1.81
2019-02-14T06:44:09.774Z,-2.38
2019-02-14T06:46:36.799Z,-2.51
2019-02-14T06:49:03.655Z,-2.47
2019-02-14T06:51:30.431Z,-2.39
2019-02-14T06:53:57.413Z,-1.75
2019-02-14T06:56:24.413Z,-1.27
2019-02-14T06:58:51.317Z,-1.07
2019-02-14T07:01:18.077Z,-1.11
2019-02-14T07:03:44.975Z,-1.35
2019-02-14T07:06:11.921Z,-1.44
2019-02-14T07:08:38.684Z,-1.36
2019-02-14T07:11:05.573Z,-1.01
2019-02-14T07:13:32.317Z,-0.75
2019-02-14T07:15:59.177Z,-0.42
2019-02-14T07:18:25.993Z,-0.23
2019-02-14T07:20:52.732Z,-0.15
2019-02-14T07:23:19.604Z,0.00
2019-02-14T07:25:46.346Z,-0.08
2019-02-14T07:28:13.140Z,-0.23
2019-02-14T07:30:39.981Z,0.08
2019-02-14T07:33:06.932Z,0.43
2019-02-14T07:35:33.893Z,0.73
2019-02-14T07:38:00.647Z,0.89
2019-02-14T07:40:27.455Z,1.03
2019-02-14T07:42:54.318Z,1.24
2019-02-14T07:45:21.073Z,1.53
2019-02-14T07:47:47.953Z,1.78
2019-02-14T07:50:14.709Z,1.87
2019-02-14T07:52:41.486Z,1.89
2019-02-14T07:55:08.576Z,2.00
2019-02-14T07:57:35.654Z,2.12
2019-02-14T08:00:03.059Z,2.24
2019-02-14T08:02:30.361Z,2.24
2019-02-14T08:04:57.316Z,2.31
2019-02-14T08:07:24.092Z,2.46
2019-02-14T08:09:50.896Z,2.19
2019-02-14T08:12:17.757Z,2.25
2019-02-14T08:14:44.734Z,2.41
2019-02-14T08:17:11.739Z,2.53
2019-02-14T08:19:38.472Z,2.72
2019-02-14T08:22:05.426Z,3.07
2019-02-14T08:24:32.205Z,3.25
2019-02-14T08:26:59.115Z,3.17
2019-02-14T08:29:25.977Z,3.73
2019-02-14T08:31:52.877Z,4.82
2019-02-14T08:34:19.633Z,5.54
2019-02-14T08:36:46.604Z,6.27
2019-02-14T08:39:13.358Z,7.12
2019-02-14T08:41:40.312Z,7.62
2019-02-14T08:44:07.154Z,7.72
2019-02-14T08:46:33.945Z,8.19
2019-02-14T08:49:00.899Z,8.91
2019-02-14T08:51:27.755Z,9.40
2019-02-14T08:53:54.573Z,9.48
2019-02-14T08:56:21.428Z,9.33
2019-02-14T08:58:48.309Z,9.45
2019-02-14T09:01:15.172Z,9.38
2019-02-14T09:03:41.909Z,9.18
2019-02-14T09:06:08.840Z,8.94
2019-02-14T09:08:35.644Z,8.72
2019-02-14T09:11:02.518Z,8.56
2019-02-14T09:13:29.269Z,8.77
2019-02-14T09:15:56.206Z,9.24
2019-02-14T09:18:23.067Z,10.07
2019-02-14T09:20:51.881Z,10.91
2019-02-14T09:23:20.282Z,11.69
2019-02-14T09:25:47.017Z,11.43
2019-02-14T09:28:13.861Z,11.66
2019-02-14T09:30:40.664Z,11.42
2019-02-14T09:33:07.402Z,11.81
2019-02-14T09:35:34.147Z,12.46
2019-02-14T09:38:03.514Z,13.32
2019-02-14T09:40:29.674Z,13.34
2019-02-14T09:42:56.435Z,13.06
2019-02-14T09:45:23.224Z,13.64
2019-02-14T09:47:49.952Z,14.21
2019-02-14T09:50:16.708Z,14.20
2019-02-14T09:52:43.723Z,14.16
2019-02-14T09:55:10.466Z,13.93
2019-02-14T09:57:37.448Z,13.52
2019-02-14T10:00:06.040Z,12.19
2019-02-14T10:02:32.951Z,10.82
2019-02-14T10:04:59.705Z,9.86
2019-02-14T10:07:26.634Z,8.65
2019-02-14T10:09:53.585Z,9.59
2019-02-14T10:12:20.546Z,10.99
2019-02-14T10:14:47.322Z,10.94
2019-02-14T10:17:22.058Z,11.34
2019-02-14T10:19:42.814Z,12.37
2019-02-14T10:22:10.985Z,13.31
2019-02-14T10:24:37.715Z,13.70
2019-02-14T10:27:04.448Z,13.57
2019-02-14T10:29:31.312Z,13.52
2019-02-14T10:31:58.042Z,14.53
2019-02-14T10:34:24.973Z,16.04
2019-02-14T10:36:52.588Z,18.98
2019-02-14T10:39:19.585Z,21.24
2019-02-14T10:41:46.387Z,23.08
2019-02-14T10:44:13.416Z,24.84
2019-02-14T10:46:40.307Z,26.24
2019-02-14T10:49:08.421Z,27.00
2019-02-14T10:51:35.423Z,27.78
2019-02-14T10:54:04.370Z,28.39
2019-02-14T10:56:31.109Z,29.75
2019-02-14T10:58:59.791Z,27.67
2019-02-14T11:01:26.673Z,28.30
2019-02-14T11:03:53.418Z,27.69
2019-02-14T11:06:20.211Z,23.91
2019-02-14T11:08:47.066Z,22.08
2019-02-14T11:11:13.831Z,21.03
2019-02-14T11:13:40.648Z,20.66
2019-02-14T11:16:09.635Z,22.10
2019-02-14T11:18:43.972Z,22.92
2019-02-14T11:21:05.295Z,22.83
2019-02-14T11:23:32.250Z,24.39
2019-02-14T11:25:59.222Z,24.75
2019-02-14T11:28:26.045Z,24.93
2019-02-14T11:30:52.895Z,22.11
2019-02-14T11:33:19.774Z,20.64
2019-02-14T11:35:46.726Z,20.38
2019-02-14T11:38:13.521Z,19.79
2019-02-14T11:40:40.261Z,17.24
2019-02-14T11:43:07.387Z,16.53
2019-02-14T11:45:34.133Z,18.99
2019-02-14T11:48:01.103Z,23.29
2019-02-14T11:50:27.916Z,23.77
2019-02-14T11:52:54.769Z,23.69
2019-02-14T11:55:22.724Z,27.78
2019-02-14T11:57:49.544Z,26.96
2019-02-14T12:00:19.533Z,22.21
2019-02-14T12:02:54.729Z,21.27
2019-02-14T12:05:15.099Z,21.64
2019-02-14T12:07:41.964Z,19.06
2019-02-14T12:10:13.361Z,18.36
2019-02-14T12:12:37.941Z,22.14
2019-02-14T12:15:04.977Z,26.32
2019-02-14T12:17:31.828Z,24.42
2019-02-14T12:19:58.619Z,19.00
2019-02-14T12:22:25.581Z,17.89
2019-02-14T12:24:52.492Z,16.79
2019-02-14T12:27:19.266Z,17.00
2019-02-14T12:29:46.009Z,17.53
2019-02-14T12:32:12.782Z,17.22
2019-02-14T12:34:39.691Z,17.17
2019-02-14T12:37:06.485Z,17.29
2019-02-14T12:39:33.471Z,20.76
2019-02-14T12:42:00.476Z,20.27
2019-02-14T12:44:27.244Z,18.81
2019-02-14T12:46:54.097Z,18.43
2019-02-14T12:49:20.865Z,18.35
2019-02-14T12:51:47.830Z,18.13
2019-02-14T12:54:14.587Z,17.15
2019-02-14T12:56:41.344Z,16.22
2019-02-14T12:59:08.201Z,17.10
2019-02-14T13:01:35.193Z,17.94
2019-02-14T13:04:02.079Z,17.77
2019-02-14T13:06:29.048Z,18.39
2019-02-14T13:08:55.773Z,16.98
2019-02-14T13:11:22.678Z,17.38
2019-02-14T13:13:50.683Z,18.24
2019-02-14T13:16:18.201Z,18.53
2019-02-14T13:18:45.120Z,18.43
2019-02-14T13:21:11.874Z,18.64
2019-02-14T13:23:38.635Z,18.66
2019-02-14T13:26:05.511Z,19.01
2019-02-14T13:28:32.381Z,20.41
2019-02-14T13:30:59.339Z,22.79
2019-02-14T13:33:26.319Z,24.67
2019-02-14T13:35:53.175Z,25.26
2019-02-14T13:38:19.925Z,23.36
2019-02-14T13:40:46.937Z,19.43
2019-02-14T13:43:13.825Z,15.47
2019-02-14T13:45:40.599Z,16.56
2019-02-14T13:48:11.357Z,20.89
2019-02-14T13:50:38.354Z,20.18
2019-02-14T13:53:05.172Z,22.34
2019-02-14T13:55:33.871Z,25.76
2019-02-14T13:58:00.893Z,28.48
2019-02-14T14:00:27.746Z,31.40
2019-02-14T14:02:54.838Z,32.95
2019-02-14T14:05:28.408Z,30.55
2019-02-14T14:07:55.861Z,31.91
2019-02-14T14:10:22.766Z,30.99
2019-02-14T14:12:49.736Z,31.68
2019-02-14T14:15:16.725Z,30.13
2019-02-14T14:17:43.537Z,31.64
2019-02-14T14:20:10.435Z,31.53
2019-02-14T14:22:37.460Z,28.20
2019-02-14T14:25:07.216Z,26.18
2019-02-14T14:27:33.988Z,23.92
2019-02-14T14:30:03.045Z,24.52
2019-02-14T14:32:31.611Z,25.51
2019-02-14T14:34:58.489Z,20.04
2019-02-14T14:37:25.257Z,19.66
2019-02-14T14:40:01.423Z,20.84
2019-02-14T14:42:55.472Z,20.49
2019-02-14T14:45:33.028Z,24.41
2019-02-14T14:48:00.204Z,25.51
2019-02-14T14:50:26.947Z,28.52
2019-02-14T14:52:53.820Z,28.71
2019-02-14T14:55:20.615Z,29.06
2019-02-14T14:57:47.476Z,30.27
2019-02-14T15:00:14.222Z,29.13
2019-02-14T15:02:41.124Z,23.92
2019-02-14T15:05:07.858Z,26.12
2019-02-14T15:07:35.041Z,26.47
2019-02-14T15:10:02.037Z,24.00
2019-02-14T15:12:30.675Z,26.45
2019-02-14T15:14:59.884Z,22.18
2019-02-14T15:17:28.013Z,19.45
2019-02-14T15:19:55.000Z,21.61
2019-02-14T15:22:22.003Z,21.69
2019-02-14T15:24:48.789Z,20.60
2019-02-14T15:27:15.640Z,20.72
2019-02-14T15:29:42.388Z,18.04
2019-02-14T15:32:09.260Z,19.30
2019-02-14T15:34:36.012Z,19.68
2019-02-14T15:37:03.352Z,20.07
2019-02-14T15:39:30.168Z,20.40
2019-02-14T15:41:56.969Z,21.26
2019-02-14T15:44:23.720Z,21.82
2019-02-14T15:46:56.874Z,21.67
2019-02-14T15:49:29.911Z,20.37
2019-02-14T15:51:59.331Z,18.56
2019-02-14T15:54:26.131Z,17.32
2019-02-14T15:56:53.651Z,15.56
2019-02-14T15:59:23.764Z,14.35
2019-02-14T16:01:50.714Z,12.83
2019-02-14T16:04:17.716Z,12.68
2019-02-14T16:06:44.483Z,12.11
2019-02-14T16:09:12.283Z,12.54
2019-02-14T16:11:40.085Z,13.23
2019-02-14T16:14:07.081Z,14.10
2019-02-14T16:16:33.941Z,13.79
2019-02-14T16:19:00.683Z,12.53
2019-02-14T16:21:29.383Z,11.32
2019-02-14T16:23:56.499Z,10.64
2019-02-14T16:26:23.385Z,10.26
2019-02-14T16:28:51.742Z,9.99
2019-02-14T16:31:18.467Z,10.20
2019-02-14T16:33:45.305Z,10.71
2019-02-14T16:36:12.340Z,11.07
2019-02-14T16:38:39.117Z,11.31
2019-02-14T16:41:05.960Z,11.45
2019-02-14T16:43:32.885Z,11.48
2019-02-14T16:45:59.732Z,11.54
2019-02-14T16:48:26.573Z,11.10
2019-02-14T16:50:53.379Z,10.96
2019-02-14T16:53:20.191Z,10.27
2019-02-14T16:55:47.822Z,9.88
2019-02-14T16:58:14.713Z,9.78
2019-02-14T17:00:41.571Z,9.75
2019-02-14T17:03:08.321Z,9.68
2019-02-14T17:05:35.123Z,9.49
2019-02-14T17:08:01.985Z,9.12
2019-02-14T17:10:36.812Z,8.75
2019-02-14T17:13:03.454Z,8.40
2019-02-14T17:15:31.806Z,7.84
2019-02-14T17:17:58.783Z,7.54
2019-02-14T17:20:25.812Z,7.52
2019-02-14T17:22:52.798Z,7.54
2019-02-14T17:25:19.706Z,7.81
2019-02-14T17:27:46.531Z,8.08
2019-02-14T17:30:13.519Z,8.16
2019-02-14T17:32:40.297Z,7.67
2019-02-14T17:35:07.096Z,7.56
2019-02-14T17:37:33.945Z,7.27
2019-02-14T17:40:00.708Z,7.40
2019-02-14T17:42:27.462Z,7.59
2019-02-14T17:44:54.472Z,8.00
2019-02-14T17:47:21.400Z,7.86
2019-02-14T17:49:48.398Z,7.43
2019-02-14T17:52:15.872Z,7.52
2019-02-14T17:54:44.671Z,7.79
2019-02-14T17:57:11.541Z,7.63
2019-02-14T17:59:38.295Z,7.63
2019-02-14T18:02:05.301Z,7.56
2019-02-14T18:04:32.336Z,7.59
2019-02-14T18:06:59.176Z,7.58
2019-02-14T18:09:26.044Z,7.36
2019-02-14T18:11:55.063Z,7.31
2019-02-14T18:14:21.927Z,7.30
2019-02-14T18:16:48.828Z,7.27
2019-02-14T18:19:16.420Z,7.00
2019-02-14T18:21:46.379Z,6.84
2019-02-14T18:24:13.471Z,6.87
2019-02-14T18:26:40.375Z,6.83
2019-02-14T18:29:07.262Z,6.71
2019-02-14T18:31:34.129Z,6.61
2019-02-14T18:34:00.917Z,6.63
2019-02-14T18:36:27.878Z,6.62
2019-02-14T18:38:54.865Z,6.51
2019-02-14T18:41:21.634Z,6.41
2019-02-14T18:43:48.609Z,6.35
2019-02-14T18:46:15.504Z,6.48
2019-02-14T18:48:42.466Z,6.49
2019-02-14T18:51:09.350Z,6.46
2019-02-14T18:53:36.190Z,6.49
2019-02-14T18:56:02.944Z,6.31
2019-02-14T18:58:30.180Z,6.18
2019-02-14T19:00:57.289Z,6.00
2019-02-14T19:03:24.323Z,5.79
2019-02-14T19:05:51.218Z,5.82
2019-02-14T19:08:18.573Z,5.80
2019-02-14T19:10:45.420Z,5.80
2019-02-14T19:13:12.347Z,5.79
2019-02-14T19:15:39.383Z,5.73
2019-02-14T19:18:06.816Z,5.67
2019-02-14T19:20:33.811Z,5.38
2019-02-14T19:23:00.783Z,5.30
2019-02-14T19:25:29.561Z,5.14
2019-02-14T19:27:56.316Z,5.17
2019-02-14T19:30:23.332Z,5.19
2019-02-14T19:32:50.321Z,5.13
2019-02-14T19:35:23.223Z,5.18
2019-02-14T19:37:45.957Z,5.07
2019-02-14T19:40:12.831Z,4.97
2019-02-14T19:42:41.983Z,4.85
2019-02-14T19:45:08.871Z,4.78
2019-02-14T19:47:35.948Z,4.74
2019-02-14T19:50:05.359Z,4.75
2019-02-14T19:52:33.377Z,5.03
2019-02-14T19:55:00.343Z,5.07
2019-02-14T19:57:27.417Z,4.90
2019-02-14T19:59:54.455Z,5.00
2019-02-14T20:02:21.322Z,5.25
2019-02-14T20:04:48.118Z,5.22
2019-02-14T20:07:15.040Z,5.00
2019-02-14T20:09:42.014Z,4.85
2019-02-14T20:12:08.884Z,4.70
2019-02-14T20:14:35.788Z,4.67
2019-02-14T20:17:03.159Z,4.75
2019-02-14T20:19:30.025Z,4.60
2019-02-14T20:21:56.885Z,4.48
2019-02-14T20:24:23.743Z,4.32
2019-02-14T20:26:50.692Z,3.89
2019-02-14T20:29:17.466Z,3.61
2019-02-14T20:31:47.255Z,3.58
2019-02-14T20:34:14.248Z,3.61
2019-02-14T20:36:41.104Z,3.61
2019-02-14T20:39:08.129Z,3.62
2019-02-14T20:41:35.292Z,3.64
2019-02-14T20:44:02.340Z,3.66
2019-02-14T20:46:29.192Z,3.68
2019-02-14T20:48:56.157Z,3.89
2019-02-14T20:51:23.087Z,4.00
2019-02-14T20:53:50.077Z,4.09
2019-02-14T20:56:17.090Z,4.17
2019-02-14T20:58:44.067Z,3.98
2019-02-14T21:01:11.020Z,4.02
2019-02-14T21:03:38.393Z,4.04
2019-02-14T21:06:05.454Z,4.06
2019-02-14T21:08:32.384Z,4.12
2019-02-14T21:10:59.342Z,4.07
2019-02-14T21:13:29.033Z,3.97
2019-02-14T21:15:58.173Z,3.92
2019-02-14T21:18:25.039Z,4.05
2019-02-14T21:20:51.949Z,4.07
2019-02-14T21:23:18.818Z,4.09
2019-02-14T21:25:45.781Z,4.12
2019-02-14T21:28:12.750Z,3.98
2019-02-14T21:30:39.716Z,3.92
2019-02-14T21:33:06.623Z,3.85
2019-02-14T21:35:33.738Z,3.80
2019-02-14T21:38:00.602Z,3.85
2019-02-14T21:40:27.630Z,3.84
2019-02-14T21:42:54.685Z,3.85
2019-02-14T21:45:21.546Z,4.07
2019-02-14T21:47:48.320Z,4.00
2019-02-14T21:50:15.516Z,4.01
2019-02-14T21:52:42.563Z,3.93
2019-02-14T21:55:09.340Z,3.99
2019-02-14T21:57:36.343Z,4.02
2019-02-14T22:00:04.236Z,4.06
2019-02-14T22:02:31.550Z,4.16
2019-02-14T22:04:58.467Z,4.13
2019-02-14T22:07:25.434Z,4.23
2019-02-14T22:09:52.332Z,4.13
2019-02-14T22:12:38.347Z,4.07
2019-02-14T22:14:48.089Z,4.14
2019-02-14T22:17:14.841Z,4.04
2019-02-14T22:19:42.977Z,4.09
2019-02-14T22:22:10.054Z,4.10
2019-02-14T22:24:36.796Z,4.21
2019-02-14T22:27:03.809Z,4.22
2019-02-14T22:29:30.920Z,4.22
2019-02-14T22:31:57.904Z,4.26
2019-02-14T22:34:24.693Z,4.21
2019-02-14T22:36:51.446Z,4.22
2019-02-14T22:39:18.313Z,4.17
2019-02-14T22:41:45.305Z,4.23
2019-02-14T22:44:12.198Z,4.21
2019-02-14T22:46:39.096Z,3.71
2019-02-14T22:49:06.114Z,3.38
2019-02-14T22:51:33.019Z,3.07
2019-02-14T22:53:59.760Z,2.65
2019-02-14T22:56:26.669Z,2.45
2019-02-14T22:58:53.639Z,2.86
2019-02-14T23:01:20.651Z,3.05
2019-02-14T23:03:47.636Z,3.45
2019-02-14T23:06:14.508Z,3.66
2019-02-14T23:08:41.262Z,3.50
2019-02-14T23:11:08.162Z,3.51
2019-02-14T23:13:35.147Z,3.59
2019-02-14T23:16:02.137Z,3.69
2019-02-14T23:18:28.932Z,3.67
2019-02-14T23:20:55.799Z,3.58
2019-02-14T23:23:22.696Z,3.40
2019-02-14T23:25:49.623Z,3.25
2019-02-14T23:28:16.766Z,3.34
2019-02-14T23:30:43.627Z,3.41
2019-02-14T23:33:10.400Z,3.14
2019-02-14T23:35:39.213Z,3.23
2019-02-14T23:38:05.980Z,3.11
2019-02-14T23:40:32.877Z,3.18
2019-02-14T23:43:04.732Z,3.26
2019-02-14T23:45:28.374Z,3.11
2019-02-14T23:47:55.262Z,2.89
2019-02-14T23:50:22.006Z,2.77
2019-02-14T23:52:48.880Z,2.57
2019-02-14T23:55:15.756Z,2.62
2019-02-14T23:57:42.748Z,2.67
